sensor_id;sensor_type;location;lat;lon;timestamp;temperature;humidity
5834;DHT22;2943;48.012;10.968;2023-09-19T00:00:30;16.50;99.90
5834;DHT22;2943;48.012;10.968;2023-09-19T00:02:59;16.50;99.90
5834;DHT22;2943;48.012;10.968;2023-09-19T00:05:27;16.50;99.90
5834;DHT22;2943;48.012;10.968;2023-09-19T00:07:54;16.50;99.90
5834;DHT22;2943;48.012;10.968;2023-09-19T00:10:23;16.60;99.90
5834;DHT22;2943;48.012;10.968;2023-09-19T00:12:52;16.60;99.90
5834;DHT22;2943;48.012;10.968;2023-09-19T00:15:21;16.60;99.90
5834;DHT22;2943;48.012;10.968;2023-09-19T00:17:47;16.60;99.90
5834;DHT22;2943;48.012;10.968;2023-09-19T00:20:17;16.60;99.90
5834;DHT22;2943;48.012;10.968;2023-09-19T00:22:48;16.50;99.90
5834;DHT22;2943;48.012;10.968;2023-09-19T00:25:15;16.60;99.90
5834;DHT22;2943;48.012;10.968;2023-09-19T00:27:42;16.50;99.90
5834;DHT22;2943;48.012;10.968;2023-09-19T00:30:11;16.50;99.90
5834;DHT22;2943;48.012;10.968;2023-09-19T00:32:41;16.50;99.90
5834;DHT22;2943;48.012;10.968;2023-09-19T00:35:08;16.50;99.90
5834;DHT22;2943;48.012;10.968;2023-09-19T00:37:35;16.40;99.90
5834;DHT22;2943;48.012;10.968;2023-09-19T00:40:04;16.50;99.90
5834;DHT22;2943;48.012;10.968;2023-09-19T00:42:31;16.40;99.90
5834;DHT22;2943;48.012;10.968;2023-09-19T00:44:59;16.40;99.90
5834;DHT22;2943;48.012;10.968;2023-09-19T00:47:28;16.50;99.90
5834;DHT22;2943;48.012;10.968;2023-09-19T00:49:56;16.50;99.90
5834;DHT22;2943;48.012;10.968;2023-09-19T00:52:22;16.50;99.90
5834;DHT22;2943;48.012;10.968;2023-09-19T00:54:49;16.50;99.90
5834;DHT22;2943;48.012;10.968;2023-09-19T00:57:19;16.50;99.90
5834;DHT22;2943;48.012;10.968;2023-09-19T00:59:48;16.50;99.90
5834;DHT22;2943;48.012;10.968;2023-09-19T01:02:16;16.50;99.90
5834;DHT22;2943;48.012;10.968;2023-09-19T01:04:42;16.50;99.90
5834;DHT22;2943;48.012;10.968;2023-09-19T01:07:09;16.60;99.90
5834;DHT22;2943;48.012;10.968;2023-09-19T01:12:33;16.60;99.90
5834;DHT22;2943;48.012;10.968;2023-09-19T01:15:06;16.60;99.90
5834;DHT22;2943;48.012;10.968;2023-09-19T01:17:39;16.60;99.90
5834;DHT22;2943;48.012;10.968;2023-09-19T01:20:11;16.60;99.90
5834;DHT22;2943;48.012;10.968;2023-09-19T01:22:42;16.70;99.90
5834;DHT22;2943;48.012;10.968;2023-09-19T01:25:31;16.60;99.90
5834;DHT22;2943;48.012;10.968;2023-09-19T01:28:10;16.70;99.90
5834;DHT22;2943;48.012;10.968;2023-09-19T01:30:43;16.70;99.90
5834;DHT22;2943;48.012;10.968;2023-09-19T01:33:10;16.60;99.90
5834;DHT22;2943;48.012;10.968;2023-09-19T01:35:37;16.60;99.90
5834;DHT22;2943;48.012;10.968;2023-09-19T01:38:04;16.70;99.90
5834;DHT22;2943;48.012;10.968;2023-09-19T01:40:32;16.60;99.90
5834;DHT22;2943;48.012;10.968;2023-09-19T01:43:02;16.60;99.90
5834;DHT22;2943;48.012;10.968;2023-09-19T01:45:34;16.60;99.90
5834;DHT22;2943;48.012;10.968;2023-09-19T01:48:11;16.60;99.90
5834;DHT22;2943;48.012;10.968;2023-09-19T01:50:42;16.60;99.90
5834;DHT22;2943;48.012;10.968;2023-09-19T01:53:13;16.60;99.90
5834;DHT22;2943;48.012;10.968;2023-09-19T01:55:41;16.60;99.90
5834;DHT22;2943;48.012;10.968;2023-09-19T01:58:12;16.60;99.90
5834;DHT22;2943;48.012;10.968;2023-09-19T02:00:42;16.50;99.90
5834;DHT22;2943;48.012;10.968;2023-09-19T02:03:11;16.50;99.90
5834;DHT22;2943;48.012;10.968;2023-09-19T02:05:39;16.50;99.90
5834;DHT22;2943;48.012;10.968;2023-09-19T02:08:06;16.50;99.90
5834;DHT22;2943;48.012;10.968;2023-09-19T02:10:32;16.50;99.90
5834;DHT22;2943;48.012;10.968;2023-09-19T02:12:59;16.50;99.90
5834;DHT22;2943;48.012;10.968;2023-09-19T02:15:26;16.50;99.90
5834;DHT22;2943;48.012;10.968;2023-09-19T02:17:52;16.40;99.90
5834;DHT22;2943;48.012;10.968;2023-09-19T02:20:23;16.50;99.90
5834;DHT22;2943;48.012;10.968;2023-09-19T02:22:52;16.50;99.90
5834;DHT22;2943;48.012;10.968;2023-09-19T02:25:18;16.40;99.90
5834;DHT22;2943;48.012;10.968;2023-09-19T02:27:45;16.40;99.90
5834;DHT22;2943;48.012;10.968;2023-09-19T02:30:12;16.40;99.90
5834;DHT22;2943;48.012;10.968;2023-09-19T02:32:41;16.40;99.90
5834;DHT22;2943;48.012;10.968;2023-09-19T02:35:08;16.30;99.90
5834;DHT22;2943;48.012;10.968;2023-09-19T02:37:37;16.30;99.90
5834;DHT22;2943;48.012;10.968;2023-09-19T02:40:05;16.30;99.90
5834;DHT22;2943;48.012;10.968;2023-09-19T02:42:44;16.30;99.90
5834;DHT22;2943;48.012;10.968;2023-09-19T02:45:13;16.30;99.90
5834;DHT22;2943;48.012;10.968;2023-09-19T02:47:40;16.20;99.90
5834;DHT22;2943;48.012;10.968;2023-09-19T02:50:07;16.20;99.90
5834;DHT22;2943;48.012;10.968;2023-09-19T02:52:37;16.20;99.90
5834;DHT22;2943;48.012;10.968;2023-09-19T02:55:04;16.20;99.90
5834;DHT22;2943;48.012;10.968;2023-09-19T02:57:31;16.10;99.90
5834;DHT22;2943;48.012;10.968;2023-09-19T02:59:59;16.10;99.90
5834;DHT22;2943;48.012;10.968;2023-09-19T03:02:30;16.10;99.90
5834;DHT22;2943;48.012;10.968;2023-09-19T03:04:58;16.20;99.90
5834;DHT22;2943;48.012;10.968;2023-09-19T03:07:26;16.10;99.90
5834;DHT22;2943;48.012;10.968;2023-09-19T03:09:54;16.10;99.90
5834;DHT22;2943;48.012;10.968;2023-09-19T03:12:20;16.10;99.90
5834;DHT22;2943;48.012;10.968;2023-09-19T03:14:47;16.10;99.90
5834;DHT22;2943;48.012;10.968;2023-09-19T03:17:15;16.10;99.90
5834;DHT22;2943;48.012;10.968;2023-09-19T03:19:42;16.00;99.90
5834;DHT22;2943;48.012;10.968;2023-09-19T03:22:10;16.00;99.90
5834;DHT22;2943;48.012;10.968;2023-09-19T03:24:37;16.00;99.90
5834;DHT22;2943;48.012;10.968;2023-09-19T03:27:05;15.90;99.90
5834;DHT22;2943;48.012;10.968;2023-09-19T03:29:31;15.90;99.90
5834;DHT22;2943;48.012;10.968;2023-09-19T03:31:58;15.90;99.90
5834;DHT22;2943;48.012;10.968;2023-09-19T03:34:25;15.90;99.90
5834;DHT22;2943;48.012;10.968;2023-09-19T03:36:52;15.90;99.90
5834;DHT22;2943;48.012;10.968;2023-09-19T03:39:19;15.90;99.90
5834;DHT22;2943;48.012;10.968;2023-09-19T03:41:45;15.90;99.90
5834;DHT22;2943;48.012;10.968;2023-09-19T03:44:14;15.90;99.90
5834;DHT22;2943;48.012;10.968;2023-09-19T03:46:40;15.90;99.90
5834;DHT22;2943;48.012;10.968;2023-09-19T03:49:07;15.80;99.90
5834;DHT22;2943;48.012;10.968;2023-09-19T03:51:35;15.80;99.90
5834;DHT22;2943;48.012;10.968;2023-09-19T03:54:03;15.80;99.90
5834;DHT22;2943;48.012;10.968;2023-09-19T03:56:30;15.70;99.90
5834;DHT22;2943;48.012;10.968;2023-09-19T03:58:58;15.70;99.90
5834;DHT22;2943;48.012;10.968;2023-09-19T04:01:26;15.70;99.90
5834;DHT22;2943;48.012;10.968;2023-09-19T04:03:56;15.70;99.90
5834;DHT22;2943;48.012;10.968;2023-09-19T04:06:22;15.70;99.90
5834;DHT22;2943;48.012;10.968;2023-09-19T04:08:49;15.70;99.90
5834;DHT22;2943;48.012;10.968;2023-09-19T04:11:17;15.70;99.90
5834;DHT22;2943;48.012;10.968;2023-09-19T04:13:43;15.60;99.90
5834;DHT22;2943;48.012;10.968;2023-09-19T04:16:10;15.60;99.90
5834;DHT22;2943;48.012;10.968;2023-09-19T04:18:38;15.80;99.90
5834;DHT22;2943;48.012;10.968;2023-09-19T04:21:05;16.00;99.90
5834;DHT22;2943;48.012;10.968;2023-09-19T04:23:32;16.00;99.90
5834;DHT22;2943;48.012;10.968;2023-09-19T04:25:59;16.00;99.90
5834;DHT22;2943;48.012;10.968;2023-09-19T04:28:25;15.90;99.90
5834;DHT22;2943;48.012;10.968;2023-09-19T04:30:53;15.90;99.90
5834;DHT22;2943;48.012;10.968;2023-09-19T04:33:20;15.80;99.90
5834;DHT22;2943;48.012;10.968;2023-09-19T04:35:50;15.80;99.90
5834;DHT22;2943;48.012;10.968;2023-09-19T04:38:17;15.70;99.90
5834;DHT22;2943;48.012;10.968;2023-09-19T04:40:44;15.60;99.90
5834;DHT22;2943;48.012;10.968;2023-09-19T04:43:11;15.60;99.90
5834;DHT22;2943;48.012;10.968;2023-09-19T04:45:38;15.50;99.90
5834;DHT22;2943;48.012;10.968;2023-09-19T04:48:05;15.50;99.90
5834;DHT22;2943;48.012;10.968;2023-09-19T04:50:34;15.50;99.90
5834;DHT22;2943;48.012;10.968;2023-09-19T04:53:03;15.50;99.90
5834;DHT22;2943;48.012;10.968;2023-09-19T04:55:30;15.40;99.90
5834;DHT22;2943;48.012;10.968;2023-09-19T04:57:58;15.40;99.90
5834;DHT22;2943;48.012;10.968;2023-09-19T05:00:25;15.40;99.90
5834;DHT22;2943;48.012;10.968;2023-09-19T05:02:55;15.40;99.90
5834;DHT22;2943;48.012;10.968;2023-09-19T05:05:22;15.30;99.90
5834;DHT22;2943;48.012;10.968;2023-09-19T05:07:50;15.30;99.90
5834;DHT22;2943;48.012;10.968;2023-09-19T05:10:21;15.30;99.90
5834;DHT22;2943;48.012;10.968;2023-09-19T05:12:47;15.20;99.90
5834;DHT22;2943;48.012;10.968;2023-09-19T05:15:17;15.30;99.90
5834;DHT22;2943;48.012;10.968;2023-09-19T05:17:47;15.30;99.90
5834;DHT22;2943;48.012;10.968;2023-09-19T05:20:14;15.30;99.90
5834;DHT22;2943;48.012;10.968;2023-09-19T05:22:50;15.30;99.90
5834;DHT22;2943;48.012;10.968;2023-09-19T05:25:16;15.30;99.90
5834;DHT22;2943;48.012;10.968;2023-09-19T05:27:45;15.30;99.90
5834;DHT22;2943;48.012;10.968;2023-09-19T05:30:12;15.30;99.90
5834;DHT22;2943;48.012;10.968;2023-09-19T05:32:41;15.40;99.90
5834;DHT22;2943;48.012;10.968;2023-09-19T05:35:08;15.40;99.90
5834;DHT22;2943;48.012;10.968;2023-09-19T05:37:38;15.40;99.90
5834;DHT22;2943;48.012;10.968;2023-09-19T05:40:05;15.40;99.90
5834;DHT22;2943;48.012;10.968;2023-09-19T05:42:35;15.40;99.90
5834;DHT22;2943;48.012;10.968;2023-09-19T05:45:05;15.40;99.90
5834;DHT22;2943;48.012;10.968;2023-09-19T05:47:32;15.40;99.90
5834;DHT22;2943;48.012;10.968;2023-09-19T05:49:58;15.50;99.90
5834;DHT22;2943;48.012;10.968;2023-09-19T05:52:25;15.50;99.90
5834;DHT22;2943;48.012;10.968;2023-09-19T05:54:52;15.40;99.90
5834;DHT22;2943;48.012;10.968;2023-09-19T05:57:18;15.50;99.90
5834;DHT22;2943;48.012;10.968;2023-09-19T05:59:45;15.50;99.90
5834;DHT22;2943;48.012;10.968;2023-09-19T06:02:15;15.50;99.90
5834;DHT22;2943;48.012;10.968;2023-09-19T06:04:44;15.60;99.90
5834;DHT22;2943;48.012;10.968;2023-09-19T06:07:11;15.60;99.90
5834;DHT22;2943;48.012;10.968;2023-09-19T06:09:37;15.60;99.90
5834;DHT22;2943;48.012;10.968;2023-09-19T06:12:04;15.60;99.90
5834;DHT22;2943;48.012;10.968;2023-09-19T06:14:31;15.70;99.90
5834;DHT22;2943;48.012;10.968;2023-09-19T06:16:58;15.70;99.90
5834;DHT22;2943;48.012;10.968;2023-09-19T06:19:27;15.70;99.90
5834;DHT22;2943;48.012;10.968;2023-09-19T06:21:53;15.70;99.90
5834;DHT22;2943;48.012;10.968;2023-09-19T06:24:20;15.70;99.90
5834;DHT22;2943;48.012;10.968;2023-09-19T06:26:47;15.80;99.90
5834;DHT22;2943;48.012;10.968;2023-09-19T06:29:15;15.80;99.90
5834;DHT22;2943;48.012;10.968;2023-09-19T06:31:42;15.90;99.90
5834;DHT22;2943;48.012;10.968;2023-09-19T06:34:09;15.90;99.90
5834;DHT22;2943;48.012;10.968;2023-09-19T06:36:38;15.90;99.90
5834;DHT22;2943;48.012;10.968;2023-09-19T06:39:05;15.90;99.90
5834;DHT22;2943;48.012;10.968;2023-09-19T06:41:32;16.00;99.90
5834;DHT22;2943;48.012;10.968;2023-09-19T06:43:58;16.00;99.90
5834;DHT22;2943;48.012;10.968;2023-09-19T06:46:25;16.00;99.90
5834;DHT22;2943;48.012;10.968;2023-09-19T06:48:52;16.00;99.90
5834;DHT22;2943;48.012;10.968;2023-09-19T06:51:19;16.10;99.90
5834;DHT22;2943;48.012;10.968;2023-09-19T06:53:47;16.10;99.90
5834;DHT22;2943;48.012;10.968;2023-09-19T06:56:13;16.20;99.90
5834;DHT22;2943;48.012;10.968;2023-09-19T06:58:40;16.20;99.90
5834;DHT22;2943;48.012;10.968;2023-09-19T07:01:08;16.20;99.90
5834;DHT22;2943;48.012;10.968;2023-09-19T07:03:35;16.30;99.90
5834;DHT22;2943;48.012;10.968;2023-09-19T07:06:02;16.30;99.90
5834;DHT22;2943;48.012;10.968;2023-09-19T07:08:30;16.30;99.90
5834;DHT22;2943;48.012;10.968;2023-09-19T07:10:58;16.40;99.90
5834;DHT22;2943;48.012;10.968;2023-09-19T07:13:25;16.40;99.90
5834;DHT22;2943;48.012;10.968;2023-09-19T07:15:51;16.50;99.90
5834;DHT22;2943;48.012;10.968;2023-09-19T07:18:18;16.50;99.90
5834;DHT22;2943;48.012;10.968;2023-09-19T07:20:45;16.50;99.90
5834;DHT22;2943;48.012;10.968;2023-09-19T07:23:14;16.60;99.90
5834;DHT22;2943;48.012;10.968;2023-09-19T07:25:41;16.60;99.90
5834;DHT22;2943;48.012;10.968;2023-09-19T07:28:10;16.60;99.90
5834;DHT22;2943;48.012;10.968;2023-09-19T07:30:36;16.70;99.90
5834;DHT22;2943;48.012;10.968;2023-09-19T07:33:04;16.70;99.90
5834;DHT22;2943;48.012;10.968;2023-09-19T07:35:31;16.80;99.90
5834;DHT22;2943;48.012;10.968;2023-09-19T07:37:58;16.80;99.90
5834;DHT22;2943;48.012;10.968;2023-09-19T07:40:26;16.80;99.90
5834;DHT22;2943;48.012;10.968;2023-09-19T07:42:54;16.90;99.90
5834;DHT22;2943;48.012;10.968;2023-09-19T07:45:22;17.00;99.90
5834;DHT22;2943;48.012;10.968;2023-09-19T07:47:50;17.10;99.90
5834;DHT22;2943;48.012;10.968;2023-09-19T07:50:17;17.20;99.90
5834;DHT22;2943;48.012;10.968;2023-09-19T07:52:45;17.30;99.90
5834;DHT22;2943;48.012;10.968;2023-09-19T07:55:11;17.40;99.90
5834;DHT22;2943;48.012;10.968;2023-09-19T07:57:41;17.50;99.90
5834;DHT22;2943;48.012;10.968;2023-09-19T08:00:09;17.60;99.90
5834;DHT22;2943;48.012;10.968;2023-09-19T08:02:38;17.70;99.90
5834;DHT22;2943;48.012;10.968;2023-09-19T08:05:05;17.70;99.90
5834;DHT22;2943;48.012;10.968;2023-09-19T08:07:35;17.80;99.90
5834;DHT22;2943;48.012;10.968;2023-09-19T08:10:02;17.80;99.90
5834;DHT22;2943;48.012;10.968;2023-09-19T08:12:28;17.90;99.90
5834;DHT22;2943;48.012;10.968;2023-09-19T08:14:55;17.90;99.90
5834;DHT22;2943;48.012;10.968;2023-09-19T08:17:22;17.90;99.90
5834;DHT22;2943;48.012;10.968;2023-09-19T08:19:50;17.90;99.90
5834;DHT22;2943;48.012;10.968;2023-09-19T08:22:18;17.90;99.90
5834;DHT22;2943;48.012;10.968;2023-09-19T08:24:44;17.90;99.90
5834;DHT22;2943;48.012;10.968;2023-09-19T08:27:11;18.00;99.90
5834;DHT22;2943;48.012;10.968;2023-09-19T08:29:38;18.10;99.90
5834;DHT22;2943;48.012;10.968;2023-09-19T08:32:04;18.10;99.90
5834;DHT22;2943;48.012;10.968;2023-09-19T08:34:31;18.10;99.90
5834;DHT22;2943;48.012;10.968;2023-09-19T08:37:00;18.10;99.90
5834;DHT22;2943;48.012;10.968;2023-09-19T08:39:27;18.20;99.90
5834;DHT22;2943;48.012;10.968;2023-09-19T08:41:59;18.20;99.90
5834;DHT22;2943;48.012;10.968;2023-09-19T08:44:26;18.30;99.90
5834;DHT22;2943;48.012;10.968;2023-09-19T08:46:58;18.20;99.90
5834;DHT22;2943;48.012;10.968;2023-09-19T08:49:33;18.30;99.90
5834;DHT22;2943;48.012;10.968;2023-09-19T08:52:05;18.40;99.90
5834;DHT22;2943;48.012;10.968;2023-09-19T08:54:35;18.50;99.90
5834;DHT22;2943;48.012;10.968;2023-09-19T08:57:05;18.60;99.90
5834;DHT22;2943;48.012;10.968;2023-09-19T08:59:33;18.80;99.90
5834;DHT22;2943;48.012;10.968;2023-09-19T09:02:00;18.90;99.90
5834;DHT22;2943;48.012;10.968;2023-09-19T09:04:29;19.00;99.90
5834;DHT22;2943;48.012;10.968;2023-09-19T09:06:56;19.10;99.90
5834;DHT22;2943;48.012;10.968;2023-09-19T09:09:25;19.20;99.90
5834;DHT22;2943;48.012;10.968;2023-09-19T09:11:51;19.30;99.90
5834;DHT22;2943;48.012;10.968;2023-09-19T09:14:19;19.40;99.90
5834;DHT22;2943;48.012;10.968;2023-09-19T09:16:46;19.40;99.90
5834;DHT22;2943;48.012;10.968;2023-09-19T09:19:14;19.40;99.90
5834;DHT22;2943;48.012;10.968;2023-09-19T09:21:46;19.30;99.90
5834;DHT22;2943;48.012;10.968;2023-09-19T09:24:29;19.30;99.90
5834;DHT22;2943;48.012;10.968;2023-09-19T09:26:59;19.30;99.90
5834;DHT22;2943;48.012;10.968;2023-09-19T09:29:41;19.30;99.90
5834;DHT22;2943;48.012;10.968;2023-09-19T09:32:18;19.40;99.90
5834;DHT22;2943;48.012;10.968;2023-09-19T09:34:45;19.50;99.90
5834;DHT22;2943;48.012;10.968;2023-09-19T09:37:13;19.60;99.90
5834;DHT22;2943;48.012;10.968;2023-09-19T09:39:42;19.70;99.90
5834;DHT22;2943;48.012;10.968;2023-09-19T09:42:23;19.80;99.90
5834;DHT22;2943;48.012;10.968;2023-09-19T09:45:07;20.00;99.90
5834;DHT22;2943;48.012;10.968;2023-09-19T09:47:42;20.00;99.90
5834;DHT22;2943;48.012;10.968;2023-09-19T09:50:10;20.00;99.90
5834;DHT22;2943;48.012;10.968;2023-09-19T09:52:45;20.00;99.90
5834;DHT22;2943;48.012;10.968;2023-09-19T09:55:14;19.90;99.90
5834;DHT22;2943;48.012;10.968;2023-09-19T09:57:42;19.90;99.90
5834;DHT22;2943;48.012;10.968;2023-09-19T10:00:10;19.90;99.90
5834;DHT22;2943;48.012;10.968;2023-09-19T10:02:45;19.90;99.90
5834;DHT22;2943;48.012;10.968;2023-09-19T10:05:13;19.90;99.90
5834;DHT22;2943;48.012;10.968;2023-09-19T10:07:46;19.90;99.90
5834;DHT22;2943;48.012;10.968;2023-09-19T10:10:16;19.90;99.90
5834;DHT22;2943;48.012;10.968;2023-09-19T10:13:03;19.90;99.90
5834;DHT22;2943;48.012;10.968;2023-09-19T10:15:33;19.90;99.90
5834;DHT22;2943;48.012;10.968;2023-09-19T10:18:01;19.70;99.90
5834;DHT22;2943;48.012;10.968;2023-09-19T10:20:31;19.60;99.90
5834;DHT22;2943;48.012;10.968;2023-09-19T10:23:04;19.50;99.90
5834;DHT22;2943;48.012;10.968;2023-09-19T10:25:36;19.50;99.90
5834;DHT22;2943;48.012;10.968;2023-09-19T10:28:05;19.60;99.90
5834;DHT22;2943;48.012;10.968;2023-09-19T10:30:40;19.60;99.90
5834;DHT22;2943;48.012;10.968;2023-09-19T10:33:09;19.60;99.90
5834;DHT22;2943;48.012;10.968;2023-09-19T10:35:37;19.60;99.90
5834;DHT22;2943;48.012;10.968;2023-09-19T10:38:06;19.60;99.90
5834;DHT22;2943;48.012;10.968;2023-09-19T10:40:35;19.80;99.90
5834;DHT22;2943;48.012;10.968;2023-09-19T10:43:05;19.90;99.90
5834;DHT22;2943;48.012;10.968;2023-09-19T10:45:33;20.20;99.90
5834;DHT22;2943;48.012;10.968;2023-09-19T10:48:00;20.20;99.90
5834;DHT22;2943;48.012;10.968;2023-09-19T10:50:28;20.20;99.90
5834;DHT22;2943;48.012;10.968;2023-09-19T10:52:59;20.30;99.90
5834;DHT22;2943;48.012;10.968;2023-09-19T10:55:30;20.40;99.90
5834;DHT22;2943;48.012;10.968;2023-09-19T10:57:59;20.30;99.90
5834;DHT22;2943;48.012;10.968;2023-09-19T11:00:28;20.30;99.90
5834;DHT22;2943;48.012;10.968;2023-09-19T11:03:19;20.20;99.90
5834;DHT22;2943;48.012;10.968;2023-09-19T11:06:04;20.20;99.90
5834;DHT22;2943;48.012;10.968;2023-09-19T11:08:54;20.20;99.90
5834;DHT22;2943;48.012;10.968;2023-09-19T11:11:41;20.30;99.90
5834;DHT22;2943;48.012;10.968;2023-09-19T11:14:15;20.40;99.90
5834;DHT22;2943;48.012;10.968;2023-09-19T11:19:35;20.70;99.90
5834;DHT22;2943;48.012;10.968;2023-09-19T11:22:22;20.80;99.90
5834;DHT22;2943;48.012;10.968;2023-09-19T11:24:51;20.80;99.90
5834;DHT22;2943;48.012;10.968;2023-09-19T11:27:21;21.00;99.90
5834;DHT22;2943;48.012;10.968;2023-09-19T11:30:04;21.10;99.90
5834;DHT22;2943;48.012;10.968;2023-09-19T11:38:17;21.40;99.90
5834;DHT22;2943;48.012;10.968;2023-09-19T11:40:44;21.50;99.90
5834;DHT22;2943;48.012;10.968;2023-09-19T11:43:32;21.60;99.90
5834;DHT22;2943;48.012;10.968;2023-09-19T11:46:09;21.60;99.90
5834;DHT22;2943;48.012;10.968;2023-09-19T11:48:38;21.70;99.90
5834;DHT22;2943;48.012;10.968;2023-09-19T11:51:19;21.70;99.90
5834;DHT22;2943;48.012;10.968;2023-09-19T11:53:48;21.60;99.90
5834;DHT22;2943;48.012;10.968;2023-09-19T11:56:18;21.50;99.90
5834;DHT22;2943;48.012;10.968;2023-09-19T11:58:45;21.50;99.90
5834;DHT22;2943;48.012;10.968;2023-09-19T12:01:20;21.50;99.90
5834;DHT22;2943;48.012;10.968;2023-09-19T12:03:48;21.40;99.90
5834;DHT22;2943;48.012;10.968;2023-09-19T12:06:19;21.40;99.90
5834;DHT22;2943;48.012;10.968;2023-09-19T12:08:47;21.40;99.90
5834;DHT22;2943;48.012;10.968;2023-09-19T12:11:15;21.50;99.90
5834;DHT22;2943;48.012;10.968;2023-09-19T12:13:43;21.50;99.90
5834;DHT22;2943;48.012;10.968;2023-09-19T12:16:12;21.40;99.90
5834;DHT22;2943;48.012;10.968;2023-09-19T12:18:41;21.40;99.90
5834;DHT22;2943;48.012;10.968;2023-09-19T12:21:22;21.30;99.90
5834;DHT22;2943;48.012;10.968;2023-09-19T12:23:56;21.30;99.90
5834;DHT22;2943;48.012;10.968;2023-09-19T12:26:23;21.30;99.90
5834;DHT22;2943;48.012;10.968;2023-09-19T12:28:49;21.20;99.90
5834;DHT22;2943;48.012;10.968;2023-09-19T12:31:18;21.20;99.90
5834;DHT22;2943;48.012;10.968;2023-09-19T12:33:46;21.20;99.90
5834;DHT22;2943;48.012;10.968;2023-09-19T12:36:19;21.30;99.90
5834;DHT22;2943;48.012;10.968;2023-09-19T12:38:54;21.20;99.90
5834;DHT22;2943;48.012;10.968;2023-09-19T12:41:21;21.20;99.90
5834;DHT22;2943;48.012;10.968;2023-09-19T12:43:48;21.20;99.90
5834;DHT22;2943;48.012;10.968;2023-09-19T12:46:19;21.30;99.90
5834;DHT22;2943;48.012;10.968;2023-09-19T12:48:50;21.30;99.90
5834;DHT22;2943;48.012;10.968;2023-09-19T12:51:38;21.40;99.90
5834;DHT22;2943;48.012;10.968;2023-09-19T12:54:05;21.50;99.90
5834;DHT22;2943;48.012;10.968;2023-09-19T12:56:39;21.40;99.90
5834;DHT22;2943;48.012;10.968;2023-09-19T12:59:06;21.40;99.90
5834;DHT22;2943;48.012;10.968;2023-09-19T13:01:35;21.30;99.90
5834;DHT22;2943;48.012;10.968;2023-09-19T13:04:13;21.20;99.90
5834;DHT22;2943;48.012;10.968;2023-09-19T13:06:43;21.20;99.90
5834;DHT22;2943;48.012;10.968;2023-09-19T13:09:11;21.10;99.90
5834;DHT22;2943;48.012;10.968;2023-09-19T13:11:39;21.10;99.90
5834;DHT22;2943;48.012;10.968;2023-09-19T13:14:19;21.20;99.90
5834;DHT22;2943;48.012;10.968;2023-09-19T13:16:55;21.30;99.90
5834;DHT22;2943;48.012;10.968;2023-09-19T13:19:40;21.40;99.90
5834;DHT22;2943;48.012;10.968;2023-09-19T13:24:52;21.60;99.90
5834;DHT22;2943;48.012;10.968;2023-09-19T13:27:19;21.70;99.90
5834;DHT22;2943;48.012;10.968;2023-09-19T13:29:46;21.80;99.90
5834;DHT22;2943;48.012;10.968;2023-09-19T13:32:12;21.90;99.90
5834;DHT22;2943;48.012;10.968;2023-09-19T13:34:40;22.00;99.90
5834;DHT22;2943;48.012;10.968;2023-09-19T13:37:07;22.00;99.90
5834;DHT22;2943;48.012;10.968;2023-09-19T13:39:35;22.00;99.90
5834;DHT22;2943;48.012;10.968;2023-09-19T13:42:03;22.10;99.90
5834;DHT22;2943;48.012;10.968;2023-09-19T13:44:30;22.20;99.90
5834;DHT22;2943;48.012;10.968;2023-09-19T13:46:56;22.20;99.90
5834;DHT22;2943;48.012;10.968;2023-09-19T13:49:23;22.30;99.90
5834;DHT22;2943;48.012;10.968;2023-09-19T13:51:52;22.40;99.90
5834;DHT22;2943;48.012;10.968;2023-09-19T13:54:20;22.40;99.90
5834;DHT22;2943;48.012;10.968;2023-09-19T13:56:47;22.40;99.90
5834;DHT22;2943;48.012;10.968;2023-09-19T13:59:14;22.40;99.90
5834;DHT22;2943;48.012;10.968;2023-09-19T14:01:41;22.50;99.90
5834;DHT22;2943;48.012;10.968;2023-09-19T14:04:08;22.50;99.90
5834;DHT22;2943;48.012;10.968;2023-09-19T14:06:35;22.50;99.90
5834;DHT22;2943;48.012;10.968;2023-09-19T14:09:04;22.60;99.90
5834;DHT22;2943;48.012;10.968;2023-09-19T14:11:33;22.60;99.90
5834;DHT22;2943;48.012;10.968;2023-09-19T14:13:59;22.60;99.90
5834;DHT22;2943;48.012;10.968;2023-09-19T14:16:26;22.50;99.90
5834;DHT22;2943;48.012;10.968;2023-09-19T14:18:55;22.50;99.90
5834;DHT22;2943;48.012;10.968;2023-09-19T14:21:22;22.60;99.90
5834;DHT22;2943;48.012;10.968;2023-09-19T14:23:48;22.50;99.90
5834;DHT22;2943;48.012;10.968;2023-09-19T14:26:17;22.40;99.90
5834;DHT22;2943;48.012;10.968;2023-09-19T14:28:44;22.40;99.90
5834;DHT22;2943;48.012;10.968;2023-09-19T14:31:10;22.40;99.90
5834;DHT22;2943;48.012;10.968;2023-09-19T14:33:38;22.50;99.90
5834;DHT22;2943;48.012;10.968;2023-09-19T14:36:05;22.70;99.90
5834;DHT22;2943;48.012;10.968;2023-09-19T14:38:34;22.80;99.90
5834;DHT22;2943;48.012;10.968;2023-09-19T14:41:01;22.90;99.90
5834;DHT22;2943;48.012;10.968;2023-09-19T14:43:29;23.00;99.90
5834;DHT22;2943;48.012;10.968;2023-09-19T14:46:01;23.10;99.90
5834;DHT22;2943;48.012;10.968;2023-09-19T14:48:28;23.10;99.90
5834;DHT22;2943;48.012;10.968;2023-09-19T14:50:55;23.10;99.90
5834;DHT22;2943;48.012;10.968;2023-09-19T14:53:23;23.00;99.90
5834;DHT22;2943;48.012;10.968;2023-09-19T14:55:50;22.90;99.90
5834;DHT22;2943;48.012;10.968;2023-09-19T14:58:17;22.80;99.90
5834;DHT22;2943;48.012;10.968;2023-09-19T15:00:45;22.80;99.90
5834;DHT22;2943;48.012;10.968;2023-09-19T15:03:12;22.80;99.90
5834;DHT22;2943;48.012;10.968;2023-09-19T15:05:40;22.80;99.90
5834;DHT22;2943;48.012;10.968;2023-09-19T15:08:06;22.60;99.90
5834;DHT22;2943;48.012;10.968;2023-09-19T15:10:33;22.60;99.90
5834;DHT22;2943;48.012;10.968;2023-09-19T15:13:00;22.60;99.90
5834;DHT22;2943;48.012;10.968;2023-09-19T15:15:26;22.60;99.90
5834;DHT22;2943;48.012;10.968;2023-09-19T15:17:54;22.60;99.90
5834;DHT22;2943;48.012;10.968;2023-09-19T15:20:21;22.60;99.90
5834;DHT22;2943;48.012;10.968;2023-09-19T15:22:47;22.50;99.90
5834;DHT22;2943;48.012;10.968;2023-09-19T15:25:16;22.60;99.90
5834;DHT22;2943;48.012;10.968;2023-09-19T15:27:43;22.60;99.90
5834;DHT22;2943;48.012;10.968;2023-09-19T15:30:10;22.60;99.90
5834;DHT22;2943;48.012;10.968;2023-09-19T15:32:40;22.50;99.90
5834;DHT22;2943;48.012;10.968;2023-09-19T15:35:09;22.40;99.90
5834;DHT22;2943;48.012;10.968;2023-09-19T15:37:39;22.40;99.90
5834;DHT22;2943;48.012;10.968;2023-09-19T15:40:06;22.40;99.90
5834;DHT22;2943;48.012;10.968;2023-09-19T15:42:40;22.40;99.90
5834;DHT22;2943;48.012;10.968;2023-09-19T15:45:08;22.40;99.90
5834;DHT22;2943;48.012;10.968;2023-09-19T15:47:35;22.40;99.90
5834;DHT22;2943;48.012;10.968;2023-09-19T15:50:03;22.40;99.90
5834;DHT22;2943;48.012;10.968;2023-09-19T15:52:31;22.50;99.90
5834;DHT22;2943;48.012;10.968;2023-09-19T15:54:58;22.50;99.90
5834;DHT22;2943;48.012;10.968;2023-09-19T15:57:24;22.50;99.90
5834;DHT22;2943;48.012;10.968;2023-09-19T15:59:51;22.40;99.90
5834;DHT22;2943;48.012;10.968;2023-09-19T16:02:18;22.40;99.90
5834;DHT22;2943;48.012;10.968;2023-09-19T16:04:44;22.40;99.90
5834;DHT22;2943;48.012;10.968;2023-09-19T16:07:11;22.30;99.90
5834;DHT22;2943;48.012;10.968;2023-09-19T16:09:39;22.20;99.90